sensor_id;sensor_type;location;lat;lon;timestamp;pressure;altitude;pressure_sealevel;temperature;humidity
40948;BME280;49382;-25.924;28.194;2023-07-28T00:00:47;85636.12;;;11.95;42.77
40948;BME280;49382;-25.924;28.194;2023-07-28T00:03:12;85635.60;;;13.46;40.76
40948;BME280;49382;-25.924;28.194;2023-07-28T00:05:38;85634.16;;;12.75;41.86
40948;BME280;49382;-25.924;28.194;2023-07-28T00:08:03;85636.52;;;12.88;41.90
40948;BME280;49382;-25.924;28.194;2023-07-28T00:10:29;85637.33;;;11.82;42.28
40948;BME280;49382;-25.924;28.194;2023-07-28T00:12:55;85637.64;;;12.62;41.67
40948;BME280;49382;-25.924;28.194;2023-07-28T00:15:20;85638.35;;;12.79;41.46
40948;BME280;49382;-25.924;28.194;2023-07-28T00:17:46;85638.22;;;13.01;41.07
40948;BME280;49382;-25.924;28.194;2023-07-28T00:20:11;85637.69;;;12.84;40.68
40948;BME280;49382;-25.924;28.194;2023-07-28T00:22:36;85635.43;;;12.01;42.54
40948;BME280;49382;-25.924;28.194;2023-07-28T00:25:02;85633.05;;;11.85;40.80
40948;BME280;49382;-25.924;28.194;2023-07-28T00:27:27;85632.80;;;12.86;40.69
40948;BME280;49382;-25.924;28.194;2023-07-28T00:29:53;85632.17;;;12.41;41.05
40948;BME280;49382;-25.924;28.194;2023-07-28T00:32:18;85634.73;;;12.40;42.30
40948;BME280;49382;-25.924;28.194;2023-07-28T00:34:44;85637.11;;;13.29;40.94
40948;BME280;49382;-25.924;28.194;2023-07-28T00:37:09;85637.32;;;13.45;40.42
40948;BME280;49382;-25.924;28.194;2023-07-28T00:39:34;85631.88;;;13.15;40.72
40948;BME280;49382;-25.924;28.194;2023-07-28T00:42:00;85630.38;;;12.73;41.04
40948;BME280;49382;-25.924;28.194;2023-07-28T00:44:25;85627.67;;;13.17;40.82
40948;BME280;49382;-25.924;28.194;2023-07-28T00:46:50;85628.67;;;13.28;41.50
40948;BME280;49382;-25.924;28.194;2023-07-28T00:49:16;85629.38;;;12.20;41.39
40948;BME280;49382;-25.924;28.194;2023-07-28T00:51:41;85630.64;;;13.24;41.36
40948;BME280;49382;-25.924;28.194;2023-07-28T00:54:06;85628.07;;;12.83;42.25
40948;BME280;49382;-25.924;28.194;2023-07-28T00:56:32;85626.08;;;12.98;40.62
40948;BME280;49382;-25.924;28.194;2023-07-28T00:58:57;85626.61;;;13.10;40.63
40948;BME280;49382;-25.924;28.194;2023-07-28T01:01:22;85625.01;;;13.80;40.23
40948;BME280;49382;-25.924;28.194;2023-07-28T01:03:48;85622.11;;;13.63;40.61
40948;BME280;49382;-25.924;28.194;2023-07-28T01:06:20;85624.50;;;13.07;40.94
40948;BME280;49382;-25.924;28.194;2023-07-28T01:08:46;85624.86;;;12.56;39.55
40948;BME280;49382;-25.924;28.194;2023-07-28T01:11:04;85624.05;;;12.53;41.13
40948;BME280;49382;-25.924;28.194;2023-07-28T01:13:30;85626.03;;;12.66;41.45
40948;BME280;49382;-25.924;28.194;2023-07-28T01:15:55;85627.85;;;13.19;40.67
40948;BME280;49382;-25.924;28.194;2023-07-28T01:18:21;85625.20;;;12.56;41.19
40948;BME280;49382;-25.924;28.194;2023-07-28T01:20:48;85621.88;;;12.10;41.93
40948;BME280;49382;-25.924;28.194;2023-07-28T01:23:19;85620.07;;;12.51;40.00
40948;BME280;49382;-25.924;28.194;2023-07-28T01:25:50;85617.22;;;12.40;40.42
40948;BME280;49382;-25.924;28.194;2023-07-28T01:28:04;85616.62;;;12.16;41.46
40948;BME280;49382;-25.924;28.194;2023-07-28T01:30:29;85614.33;;;12.62;41.70
40948;BME280;49382;-25.924;28.194;2023-07-28T01:32:55;85612.27;;;12.32;42.14
40948;BME280;49382;-25.924;28.194;2023-07-28T01:35:20;85608.89;;;12.41;41.22
40948;BME280;49382;-25.924;28.194;2023-07-28T01:37:46;85610.74;;;12.19;40.92
40948;BME280;49382;-25.924;28.194;2023-07-28T01:40:11;85610.24;;;12.77;40.20
40948;BME280;49382;-25.924;28.194;2023-07-28T01:42:36;85608.06;;;12.07;40.97
40948;BME280;49382;-25.924;28.194;2023-07-28T01:45:01;85605.66;;;12.40;41.37
40948;BME280;49382;-25.924;28.194;2023-07-28T01:47:27;85602.24;;;13.85;39.79
40948;BME280;49382;-25.924;28.194;2023-07-28T01:49:53;85599.33;;;13.13;40.22
40948;BME280;49382;-25.924;28.194;2023-07-28T01:52:18;85598.07;;;12.68;40.39
40948;BME280;49382;-25.924;28.194;2023-07-28T01:54:43;85599.50;;;12.87;40.58
40948;BME280;49382;-25.924;28.194;2023-07-28T01:57:08;85601.59;;;12.88;41.69
40948;BME280;49382;-25.924;28.194;2023-07-28T01:59:34;85598.39;;;12.99;41.31
40948;BME280;49382;-25.924;28.194;2023-07-28T02:01:59;85593.88;;;12.61;40.05
40948;BME280;49382;-25.924;28.194;2023-07-28T02:04:25;85590.78;;;12.62;40.35
40948;BME280;49382;-25.924;28.194;2023-07-28T02:06:51;85590.65;;;12.41;40.92
40948;BME280;49382;-25.924;28.194;2023-07-28T02:09:16;85590.85;;;12.62;41.31
40948;BME280;49382;-25.924;28.194;2023-07-28T02:11:41;85592.92;;;11.64;41.97
40948;BME280;49382;-25.924;28.194;2023-07-28T02:14:07;85598.02;;;11.55;41.18
40948;BME280;49382;-25.924;28.194;2023-07-28T02:16:33;85596.72;;;11.66;42.17
40948;BME280;49382;-25.924;28.194;2023-07-28T02:18:58;85598.54;;;12.20;42.69
40948;BME280;49382;-25.924;28.194;2023-07-28T02:21:23;85601.53;;;12.25;42.02
40948;BME280;49382;-25.924;28.194;2023-07-28T02:23:49;85600.72;;;12.83;41.08
40948;BME280;49382;-25.924;28.194;2023-07-28T02:26:14;85601.79;;;12.71;41.13
40948;BME280;49382;-25.924;28.194;2023-07-28T02:28:39;85599.19;;;12.88;40.80
40948;BME280;49382;-25.924;28.194;2023-07-28T02:31:04;85598.48;;;12.52;41.34
40948;BME280;49382;-25.924;28.194;2023-07-28T02:33:30;85599.40;;;11.69;42.78
40948;BME280;49382;-25.924;28.194;2023-07-28T02:35:56;85602.22;;;11.94;42.67
40948;BME280;49382;-25.924;28.194;2023-07-28T02:38:21;85600.25;;;11.84;42.01
40948;BME280;49382;-25.924;28.194;2023-07-28T02:40:47;85600.92;;;11.89;42.34
40948;BME280;49382;-25.924;28.194;2023-07-28T02:43:12;85601.27;;;11.82;42.43
40948;BME280;49382;-25.924;28.194;2023-07-28T02:45:37;85603.42;;;11.91;43.03
40948;BME280;49382;-25.924;28.194;2023-07-28T02:48:04;85601.56;;;12.37;42.58
40948;BME280;49382;-25.924;28.194;2023-07-28T02:50:29;85602.40;;;12.35;42.32
40948;BME280;49382;-25.924;28.194;2023-07-28T02:52:54;85601.52;;;11.96;41.48
40948;BME280;49382;-25.924;28.194;2023-07-28T02:55:19;85602.25;;;12.02;41.48
40948;BME280;49382;-25.924;28.194;2023-07-28T02:57:44;85601.71;;;12.33;41.44
40948;BME280;49382;-25.924;28.194;2023-07-28T03:00:11;85605.10;;;12.08;41.28
40948;BME280;49382;-25.924;28.194;2023-07-28T03:02:35;85604.28;;;12.75;38.94
40948;BME280;49382;-25.924;28.194;2023-07-28T03:05:01;85605.50;;;12.35;41.37
40948;BME280;49382;-25.924;28.194;2023-07-28T03:07:27;85606.40;;;12.53;41.45
40948;BME280;49382;-25.924;28.194;2023-07-28T03:09:52;85601.14;;;11.79;42.83
40948;BME280;49382;-25.924;28.194;2023-07-28T03:12:18;85602.14;;;11.89;42.69
40948;BME280;49382;-25.924;28.194;2023-07-28T03:14:43;85605.12;;;12.13;42.44
40948;BME280;49382;-25.924;28.194;2023-07-28T03:17:08;85606.93;;;12.30;41.79
40948;BME280;49382;-25.924;28.194;2023-07-28T03:19:34;85608.55;;;11.86;43.17
40948;BME280;49382;-25.924;28.194;2023-07-28T03:21:59;85610.11;;;12.09;42.03
40948;BME280;49382;-25.924;28.194;2023-07-28T03:24:24;85609.11;;;11.85;41.17
40948;BME280;49382;-25.924;28.194;2023-07-28T03:26:50;85609.14;;;12.33;40.73
40948;BME280;49382;-25.924;28.194;2023-07-28T03:29:15;85614.06;;;11.20;42.75
40948;BME280;49382;-25.924;28.194;2023-07-28T03:31:40;85610.61;;;12.02;42.22
40948;BME280;49382;-25.924;28.194;2023-07-28T03:34:06;85608.94;;;11.45;43.74
40948;BME280;49382;-25.924;28.194;2023-07-28T03:36:31;85612.21;;;12.32;41.17
40948;BME280;49382;-25.924;28.194;2023-07-28T03:38:56;85609.21;;;10.81;41.87
40948;BME280;49382;-25.924;28.194;2023-07-28T03:41:22;85610.19;;;11.21;42.67
40948;BME280;49382;-25.924;28.194;2023-07-28T03:43:48;85615.05;;;10.94;43.62
40948;BME280;49382;-25.924;28.194;2023-07-28T03:46:14;85618.14;;;11.65;42.58
40948;BME280;49382;-25.924;28.194;2023-07-28T03:48:39;85614.98;;;12.05;42.59
40948;BME280;49382;-25.924;28.194;2023-07-28T03:51:04;85619.46;;;12.64;41.58
40948;BME280;49382;-25.924;28.194;2023-07-28T03:53:30;85617.41;;;12.80;40.15
40948;BME280;49382;-25.924;28.194;2023-07-28T03:55:55;85616.18;;;11.41;42.22
40948;BME280;49382;-25.924;28.194;2023-07-28T03:58:20;85619.35;;;11.64;41.49
40948;BME280;49382;-25.924;28.194;2023-07-28T04:00:47;85617.20;;;11.21;42.27
40948;BME280;49382;-25.924;28.194;2023-07-28T04:03:11;85618.36;;;11.45;42.95
40948;BME280;49382;-25.924;28.194;2023-07-28T04:05:37;85617.88;;;11.53;41.74
40948;BME280;49382;-25.924;28.194;2023-07-28T04:08:03;85614.37;;;11.69;41.21
40948;BME280;49382;-25.924;28.194;2023-07-28T04:10:29;85618.02;;;12.06;40.27
40948;BME280;49382;-25.924;28.194;2023-07-28T04:12:54;85621.47;;;11.39;42.03
40948;BME280;49382;-25.924;28.194;2023-07-28T04:15:19;85623.39;;;11.17;43.58
40948;BME280;49382;-25.924;28.194;2023-07-28T04:17:44;85626.11;;;12.08;42.74
40948;BME280;49382;-25.924;28.194;2023-07-28T04:20:10;85622.26;;;12.61;42.04
40948;BME280;49382;-25.924;28.194;2023-07-28T04:22:35;85621.99;;;11.67;39.97
40948;BME280;49382;-25.924;28.194;2023-07-28T04:25:01;85624.38;;;12.04;40.07
40948;BME280;49382;-25.924;28.194;2023-07-28T04:27:26;85628.03;;;12.06;41.69
40948;BME280;49382;-25.924;28.194;2023-07-28T04:29:52;85632.51;;;11.87;42.82
40948;BME280;49382;-25.924;28.194;2023-07-28T04:32:17;85626.58;;;12.76;41.87
40948;BME280;49382;-25.924;28.194;2023-07-28T04:34:43;85622.86;;;11.75;40.26
40948;BME280;49382;-25.924;28.194;2023-07-28T04:37:08;85626.11;;;10.94;41.95
40948;BME280;49382;-25.924;28.194;2023-07-28T04:39:34;85629.64;;;11.42;42.47
40948;BME280;49382;-25.924;28.194;2023-07-28T04:41:59;85630.87;;;12.23;42.44
40948;BME280;49382;-25.924;28.194;2023-07-28T04:44:25;85630.48;;;12.53;41.90
40948;BME280;49382;-25.924;28.194;2023-07-28T04:46:50;85635.37;;;13.51;39.42
40948;BME280;49382;-25.924;28.194;2023-07-28T04:49:15;85632.24;;;12.74;39.96
40948;BME280;49382;-25.924;28.194;2023-07-28T04:51:41;85632.44;;;12.74;39.65
40948;BME280;49382;-25.924;28.194;2023-07-28T04:54:07;85634.86;;;11.27;41.01
40948;BME280;49382;-25.924;28.194;2023-07-28T04:56:33;85639.83;;;11.45;42.64
40948;BME280;49382;-25.924;28.194;2023-07-28T04:58:58;85639.16;;;11.28;43.14
40948;BME280;49382;-25.924;28.194;2023-07-28T05:01:23;85643.39;;;11.62;42.45
40948;BME280;49382;-25.924;28.194;2023-07-28T05:03:49;85644.29;;;11.55;42.49
40948;BME280;49382;-25.924;28.194;2023-07-28T05:06:14;85646.81;;;11.26;43.12
40948;BME280;49382;-25.924;28.194;2023-07-28T05:08:39;85649.62;;;11.67;42.52
40948;BME280;49382;-25.924;28.194;2023-07-28T05:11:05;85646.61;;;11.48;43.02
40948;BME280;49382;-25.924;28.194;2023-07-28T05:13:30;85648.30;;;11.33;43.20
40948;BME280;49382;-25.924;28.194;2023-07-28T05:15:56;85650.11;;;12.27;42.30
40948;BME280;49382;-25.924;28.194;2023-07-28T05:18:22;85653.39;;;12.41;42.21
40948;BME280;49382;-25.924;28.194;2023-07-28T05:20:47;85653.33;;;13.39;40.35
40948;BME280;49382;-25.924;28.194;2023-07-28T05:23:13;85655.25;;;12.12;42.37
40948;BME280;49382;-25.924;28.194;2023-07-28T05:25:38;85662.14;;;12.28;41.99
40948;BME280;49382;-25.924;28.194;2023-07-28T05:28:04;85671.12;;;12.04;42.50
40948;BME280;49382;-25.924;28.194;2023-07-28T05:30:29;85674.02;;;12.85;42.10
40948;BME280;49382;-25.924;28.194;2023-07-28T05:32:55;85670.70;;;14.01;39.98
40948;BME280;49382;-25.924;28.194;2023-07-28T05:35:20;85670.20;;;12.42;41.98
40948;BME280;49382;-25.924;28.194;2023-07-28T05:37:45;85670.30;;;12.76;41.69
40948;BME280;49382;-25.924;28.194;2023-07-28T05:40:13;85672.33;;;13.05;41.83
40948;BME280;49382;-25.924;28.194;2023-07-28T05:42:36;85676.19;;;13.00;41.95
40948;BME280;49382;-25.924;28.194;2023-07-28T05:45:02;85679.68;;;13.07;43.56
40948;BME280;49382;-25.924;28.194;2023-07-28T05:47:28;85677.73;;;14.21;41.55
40948;BME280;49382;-25.924;28.194;2023-07-28T05:49:54;85680.11;;;13.43;43.02
40948;BME280;49382;-25.924;28.194;2023-07-28T05:52:19;85683.35;;;13.20;44.29
40948;BME280;49382;-25.924;28.194;2023-07-28T05:54:44;85684.49;;;14.14;41.67
40948;BME280;49382;-25.924;28.194;2023-07-28T05:57:10;85687.41;;;14.61;41.56
40948;BME280;49382;-25.924;28.194;2023-07-28T05:59:36;85688.77;;;14.63;41.83
40948;BME280;49382;-25.924;28.194;2023-07-28T06:02:02;85689.08;;;14.32;41.34
40948;BME280;49382;-25.924;28.194;2023-07-28T06:04:27;85692.68;;;14.65;40.76
40948;BME280;49382;-25.924;28.194;2023-07-28T06:06:52;85693.32;;;15.28;41.00
40948;BME280;49382;-25.924;28.194;2023-07-28T06:09:18;85693.56;;;14.77;40.79
40948;BME280;49382;-25.924;28.194;2023-07-28T06:11:44;85696.42;;;15.46;40.20
40948;BME280;49382;-25.924;28.194;2023-07-28T06:14:09;85697.03;;;15.85;39.85
40948;BME280;49382;-25.924;28.194;2023-07-28T06:16:35;85699.18;;;15.32;40.28
40948;BME280;49382;-25.924;28.194;2023-07-28T06:19:00;85702.59;;;14.68;40.80
40948;BME280;49382;-25.924;28.194;2023-07-28T06:21:26;85704.72;;;16.33;39.82
40948;BME280;49382;-25.924;28.194;2023-07-28T06:23:51;85706.53;;;16.09;39.47
40948;BME280;49382;-25.924;28.194;2023-07-28T06:26:17;85703.75;;;16.39;37.91
40948;BME280;49382;-25.924;28.194;2023-07-28T06:28:42;85708.70;;;15.86;39.41
40948;BME280;49382;-25.924;28.194;2023-07-28T06:31:08;85709.23;;;16.30;38.38
40948;BME280;49382;-25.924;28.194;2023-07-28T06:33:33;85706.84;;;16.28;38.06
40948;BME280;49382;-25.924;28.194;2023-07-28T06:35:58;85710.06;;;16.19;38.20
40948;BME280;49382;-25.924;28.194;2023-07-28T06:38:24;85709.80;;;16.67;37.57
40948;BME280;49382;-25.924;28.194;2023-07-28T06:40:49;85709.05;;;16.69;38.05
40948;BME280;49382;-25.924;28.194;2023-07-28T06:43:14;85709.20;;;16.79;38.02
40948;BME280;49382;-25.924;28.194;2023-07-28T06:45:39;85715.42;;;17.19;37.86
40948;BME280;49382;-25.924;28.194;2023-07-28T06:48:05;85712.63;;;17.35;37.50
40948;BME280;49382;-25.924;28.194;2023-07-28T06:50:31;85712.79;;;17.20;37.85
40948;BME280;49382;-25.924;28.194;2023-07-28T06:52:56;85716.71;;;18.32;36.10
40948;BME280;49382;-25.924;28.194;2023-07-28T06:55:22;85716.75;;;18.04;35.55
40948;BME280;49382;-25.924;28.194;2023-07-28T06:57:47;85722.16;;;21.15;31.42
40948;BME280;49382;-25.924;28.194;2023-07-28T07:00:13;85725.82;;;25.11;26.28
40948;BME280;49382;-25.924;28.194;2023-07-28T07:02:38;85725.95;;;27.53;23.27
40948;BME280;49382;-25.924;28.194;2023-07-28T07:05:04;85723.19;;;30.75;19.82
40948;BME280;49382;-25.924;28.194;2023-07-28T07:07:29;85726.84;;;31.46;19.24
40948;BME280;49382;-25.924;28.194;2023-07-28T07:09:54;85728.63;;;31.01;18.58
40948;BME280;49382;-25.924;28.194;2023-07-28T07:12:19;85727.07;;;31.27;17.94
40948;BME280;49382;-25.924;28.194;2023-07-28T07:14:44;85725.43;;;33.47;16.04
40948;BME280;49382;-25.924;28.194;2023-07-28T07:17:09;85722.86;;;33.61;15.52
40948;BME280;49382;-25.924;28.194;2023-07-28T07:19:35;85723.77;;;36.13;13.94
40948;BME280;49382;-25.924;28.194;2023-07-28T07:22:00;85719.19;;;34.13;15.42
40948;BME280;49382;-25.924;28.194;2023-07-28T07:24:25;85717.99;;;33.33;15.35
40948;BME280;49382;-25.924;28.194;2023-07-28T07:26:51;85717.50;;;34.80;14.57
40948;BME280;49382;-25.924;28.194;2023-07-28T07:29:17;85720.27;;;37.67;13.16
40948;BME280;49382;-25.924;28.194;2023-07-28T07:31:42;85716.04;;;34.48;15.32
40948;BME280;49382;-25.924;28.194;2023-07-28T07:34:07;85724.08;;;36.18;14.63
40948;BME280;49382;-25.924;28.194;2023-07-28T07:36:33;85716.00;;;38.07;13.17
40948;BME280;49382;-25.924;28.194;2023-07-28T07:38:58;85715.84;;;36.83;13.73
40948;BME280;49382;-25.924;28.194;2023-07-28T07:41:23;85710.73;;;37.54;12.92
40948;BME280;49382;-25.924;28.194;2023-07-28T07:43:50;85712.30;;;38.45;12.65
40948;BME280;49382;-25.924;28.194;2023-07-28T07:46:15;85714.53;;;36.21;14.26
40948;BME280;49382;-25.924;28.194;2023-07-28T07:48:40;85715.57;;;38.50;12.25
40948;BME280;49382;-25.924;28.194;2023-07-28T07:51:06;85708.35;;;39.03;12.00
40948;BME280;49382;-25.924;28.194;2023-07-28T07:53:31;85706.99;;;36.70;13.31
40948;BME280;49382;-25.924;28.194;2023-07-28T07:55:57;85703.36;;;34.01;15.07
40948;BME280;49382;-25.924;28.194;2023-07-28T07:58:23;85706.17;;;34.62;14.61
40948;BME280;49382;-25.924;28.194;2023-07-28T08:00:48;85699.84;;;34.57;14.49
40948;BME280;49382;-25.924;28.194;2023-07-28T08:03:14;85700.54;;;33.75;15.16
40948;BME280;49382;-25.924;28.194;2023-07-28T08:05:40;85697.22;;;31.66;15.93
40948;BME280;49382;-25.924;28.194;2023-07-28T08:08:06;85697.48;;;31.56;15.92
40948;BME280;49382;-25.924;28.194;2023-07-28T08:10:31;85696.62;;;31.45;15.54
40948;BME280;49382;-25.924;28.194;2023-07-28T08:12:56;85692.01;;;32.45;14.87
40948;BME280;49382;-25.924;28.194;2023-07-28T08:15:22;85688.55;;;30.85;16.29
40948;BME280;49382;-25.924;28.194;2023-07-28T08:17:47;85689.04;;;31.36;16.16
40948;BME280;49382;-25.924;28.194;2023-07-28T08:20:13;85683.65;;;30.64;16.45
40948;BME280;49382;-25.924;28.194;2023-07-28T08:22:38;85679.17;;;30.41;16.12
40948;BME280;49382;-25.924;28.194;2023-07-28T08:25:05;85682.64;;;30.14;17.39
40948;BME280;49382;-25.924;28.194;2023-07-28T08:27:30;85675.74;;;31.02;16.46
40948;BME280;49382;-25.924;28.194;2023-07-28T08:29:55;85669.82;;;28.28;18.24
40948;BME280;49382;-25.924;28.194;2023-07-28T08:32:21;85667.92;;;29.61;19.25
40948;BME280;49382;-25.924;28.194;2023-07-28T08:34:46;85665.04;;;28.02;20.19
40948;BME280;49382;-25.924;28.194;2023-07-28T08:37:12;85668.04;;;28.84;18.72
40948;BME280;49382;-25.924;28.194;2023-07-28T08:39:37;85665.74;;;28.37;18.75
40948;BME280;49382;-25.924;28.194;2023-07-28T08:42:03;85659.44;;;29.35;17.80
40948;BME280;49382;-25.924;28.194;2023-07-28T08:44:30;85656.01;;;29.18;19.05
40948;BME280;49382;-25.924;28.194;2023-07-28T08:46:53;85649.58;;;27.37;22.19
40948;BME280;49382;-25.924;28.194;2023-07-28T08:49:19;85647.78;;;27.55;21.15
40948;BME280;49382;-25.924;28.194;2023-07-28T08:51:49;85641.42;;;28.17;19.91
40948;BME280;49382;-25.924;28.194;2023-07-28T08:54:10;85632.52;;;26.63;20.54
40948;BME280;49382;-25.924;28.194;2023-07-28T08:56:35;85629.50;;;26.57;20.89
40948;BME280;49382;-25.924;28.194;2023-07-28T08:59:01;85625.42;;;28.16;20.22
40948;BME280;49382;-25.924;28.194;2023-07-28T09:01:27;85622.53;;;27.09;20.45
40948;BME280;49382;-25.924;28.194;2023-07-28T09:03:52;85624.39;;;27.75;20.43
40948;BME280;49382;-25.924;28.194;2023-07-28T09:06:18;85625.53;;;27.10;20.58
40948;BME280;49382;-25.924;28.194;2023-07-28T09:08:44;85621.31;;;27.27;21.25
40948;BME280;49382;-25.924;28.194;2023-07-28T09:11:09;85619.00;;;25.33;22.34
40948;BME280;49382;-25.924;28.194;2023-07-28T09:13:38;85617.93;;;27.05;21.58
40948;BME280;49382;-25.924;28.194;2023-07-28T09:16:00;85612.90;;;27.11;21.10
40948;BME280;49382;-25.924;28.194;2023-07-28T09:18:26;85610.19;;;24.70;24.03
40948;BME280;49382;-25.924;28.194;2023-07-28T09:20:51;85607.64;;;25.32;22.41
40948;BME280;49382;-25.924;28.194;2023-07-28T09:23:16;85596.87;;;25.84;21.55
40948;BME280;49382;-25.924;28.194;2023-07-28T09:25:42;85590.58;;;25.80;22.33
40948;BME280;49382;-25.924;28.194;2023-07-28T09:28:08;85591.16;;;24.85;23.94
40948;BME280;49382;-25.924;28.194;2023-07-28T09:32:59;85581.92;;;25.72;22.96
40948;BME280;49382;-25.924;28.194;2023-07-28T09:35:24;85574.01;;;25.94;22.15
40948;BME280;49382;-25.924;28.194;2023-07-28T09:37:50;85574.89;;;23.59;25.40
40948;BME280;49382;-25.924;28.194;2023-07-28T09:40:20;85573.27;;;25.02;23.05
40948;BME280;49382;-25.924;28.194;2023-07-28T09:42:41;85565.22;;;24.30;22.88
40948;BME280;49382;-25.924;28.194;2023-07-28T09:45:07;85558.34;;;24.27;22.58
40948;BME280;49382;-25.924;28.194;2023-07-28T09:47:33;85556.31;;;23.94;23.84
40948;BME280;49382;-25.924;28.194;2023-07-28T09:49:58;85560.92;;;24.11;23.37
40948;BME280;49382;-25.924;28.194;2023-07-28T09:52:25;85553.82;;;23.74;23.07
40948;BME280;49382;-25.924;28.194;2023-07-28T09:54:49;85551.17;;;23.75;23.64
40948;BME280;49382;-25.924;28.194;2023-07-28T09:57:14;85545.35;;;24.13;23.04
40948;BME280;49382;-25.924;28.194;2023-07-28T09:59:40;85539.32;;;24.19;23.44
40948;BME280;49382;-25.924;28.194;2023-07-28T10:02:04;85539.52;;;23.98;24.02
40948;BME280;49382;-25.924;28.194;2023-07-28T10:04:30;85530.50;;;22.73;23.86
40948;BME280;49382;-25.924;28.194;2023-07-28T10:06:55;85535.35;;;23.25;23.00
40948;BME280;49382;-25.924;28.194;2023-07-28T10:09:20;85531.18;;;23.45;23.78
40948;BME280;49382;-25.924;28.194;2023-07-28T10:11:46;85522.64;;;24.31;22.29
40948;BME280;49382;-25.924;28.194;2023-07-28T10:16:39;85515.26;;;23.75;22.16
40948;BME280;49382;-25.924;28.194;2023-07-28T10:19:03;85511.40;;;22.55;24.93
40948;BME280;49382;-25.924;28.194;2023-07-28T10:21:29;85512.45;;;23.70;24.66
40948;BME280;49382;-25.924;28.194;2023-07-28T10:23:56;85505.34;;;22.82;24.30
40948;BME280;49382;-25.924;28.194;2023-07-28T10:28:44;85494.58;;;24.09;23.94
40948;BME280;49382;-25.924;28.194;2023-07-28T10:31:11;85491.13;;;23.38;23.80
40948;BME280;49382;-25.924;28.194;2023-07-28T10:33:36;85481.90;;;23.25;24.59
40948;BME280;49382;-25.924;28.194;2023-07-28T10:38:30;85480.41;;;22.94;24.36
40948;BME280;49382;-25.924;28.194;2023-07-28T10:40:51;85467.72;;;23.25;24.40
40948;BME280;49382;-25.924;28.194;2023-07-28T10:43:17;85461.08;;;23.25;24.79
40948;BME280;49382;-25.924;28.194;2023-07-28T10:45:42;85456.12;;;23.09;24.99
40948;BME280;49382;-25.924;28.194;2023-07-28T10:48:08;85455.09;;;23.49;24.66
40948;BME280;49382;-25.924;28.194;2023-07-28T10:50:33;85452.09;;;22.56;25.10
40948;BME280;49382;-25.924;28.194;2023-07-28T10:52:58;85448.57;;;22.94;24.59
40948;BME280;49382;-25.924;28.194;2023-07-28T10:55:25;85447.50;;;22.87;24.72
40948;BME280;49382;-25.924;28.194;2023-07-28T10:57:51;85446.73;;;22.94;23.41
40948;BME280;49382;-25.924;28.194;2023-07-28T11:00:16;85444.03;;;22.45;22.98
40948;BME280;49382;-25.924;28.194;2023-07-28T11:02:43;85440.58;;;23.76;22.80
40948;BME280;49382;-25.924;28.194;2023-07-28T11:05:09;85437.35;;;23.49;22.43
40948;BME280;49382;-25.924;28.194;2023-07-28T11:07:31;85433.46;;;22.38;23.42
40948;BME280;49382;-25.924;28.194;2023-07-28T11:09:56;85430.70;;;21.45;24.15
40948;BME280;49382;-25.924;28.194;2023-07-28T11:12:21;85424.31;;;21.97;24.01
40948;BME280;49382;-25.924;28.194;2023-07-28T11:14:47;85415.48;;;23.44;22.28
40948;BME280;49382;-25.924;28.194;2023-07-28T11:17:13;85409.82;;;22.45;23.41
40948;BME280;49382;-25.924;28.194;2023-07-28T11:19:38;85414.09;;;22.98;21.10
40948;BME280;49382;-25.924;28.194;2023-07-28T11:22:04;85411.46;;;22.32;21.70
40948;BME280;49382;-25.924;28.194;2023-07-28T11:24:30;85404.69;;;22.09;21.27
40948;BME280;49382;-25.924;28.194;2023-07-28T11:26:58;85405.49;;;22.48;20.26
40948;BME280;49382;-25.924;28.194;2023-07-28T11:29:21;85401.40;;;21.83;20.74
40948;BME280;49382;-25.924;28.194;2023-07-28T11:31:48;85395.08;;;21.87;20.58
40948;BME280;49382;-25.924;28.194;2023-07-28T11:34:14;85392.51;;;21.86;21.45
40948;BME280;49382;-25.924;28.194;2023-07-28T11:36:39;85392.45;;;21.66;21.68
40948;BME280;49382;-25.924;28.194;2023-07-28T11:39:05;85390.15;;;21.38;20.92
40948;BME280;49382;-25.924;28.194;2023-07-28T11:41:30;85386.99;;;21.77;21.12
40948;BME280;49382;-25.924;28.194;2023-07-28T11:43:56;85382.33;;;21.60;20.14
40948;BME280;49382;-25.924;28.194;2023-07-28T11:48:48;85372.67;;;22.03;20.00
40948;BME280;49382;-25.924;28.194;2023-07-28T11:51:14;85378.14;;;21.80;21.20
40948;BME280;49382;-25.924;28.194;2023-07-28T11:53:39;85374.56;;;21.54;20.88
40948;BME280;49382;-25.924;28.194;2023-07-28T11:56:05;85373.58;;;21.21;20.04
40948;BME280;49382;-25.924;28.194;2023-07-28T11:58:31;85374.21;;;22.03;19.07
40948;BME280;49382;-25.924;28.194;2023-07-28T12:00:56;85375.52;;;22.56;18.20
40948;BME280;49382;-25.924;28.194;2023-07-28T12:03:29;85373.61;;;22.35;18.88
40948;BME280;49382;-25.924;28.194;2023-07-28T12:08:13;85363.03;;;22.88;21.34
40948;BME280;49382;-25.924;28.194;2023-07-28T12:13:05;85349.71;;;22.15;21.52
40948;BME280;49382;-25.924;28.194;2023-07-28T12:15:31;85349.37;;;21.83;22.82
40948;BME280;49382;-25.924;28.194;2023-07-28T12:18:02;85354.24;;;22.75;20.11
40948;BME280;49382;-25.924;28.194;2023-07-28T12:20:22;85349.68;;;22.42;20.48
40948;BME280;49382;-25.924;28.194;2023-07-28T12:22:48;85347.23;;;22.19;18.42
40948;BME280;49382;-25.924;28.194;2023-07-28T12:25:13;85347.73;;;21.73;19.40
40948;BME280;49382;-25.924;28.194;2023-07-28T12:27:39;85338.88;;;22.15;18.67
40948;BME280;49382;-25.924;28.194;2023-07-28T12:30:06;85344.24;;;22.15;18.60
40948;BME280;49382;-25.924;28.194;2023-07-28T12:32:31;85345.39;;;22.33;18.51
40948;BME280;49382;-25.924;28.194;2023-07-28T12:34:56;85343.26;;;22.17;19.08
40948;BME280;49382;-25.924;28.194;2023-07-28T12:37:22;85338.25;;;21.62;18.91
40948;BME280;49382;-25.924;28.194;2023-07-28T12:39:48;85328.98;;;21.72;19.31
40948;BME280;49382;-25.924;28.194;2023-07-28T12:42:14;85333.43;;;21.74;19.00
40948;BME280;49382;-25.924;28.194;2023-07-28T12:44:41;85340.64;;;21.77;19.42
40948;BME280;49382;-25.924;28.194;2023-07-28T12:47:06;85334.04;;;22.08;19.31